Time;durP1;ratioP1;P1;durP2;ratioP2;P2;SDS_P1;SDS_P2;PMS_P1;PMS_P2;Temp;Humidity;BMP_temperature;BMP_pressure;BME280_temperature;BME280_humidity;BME280_pressure;Samples;Min_cycle;Max_cycle;Signal;HPM_P1;HPM_P2
2022/09/04 00:03:47;;;;;;;3.90;2.03;;;;;;;16.36;80.05;96187.03;10378581;28;96746;-62
2022/09/04 00:09:07;;;;;;;3.47;1.95;;;;;;;16.36;79.88;96181.78;10356590;28;99121;-62
2022/09/04 00:14:16;;;;;;;3.65;2.47;;;;;;;16.33;80.33;96182.13;10390077;28;99192;-62
2022/09/04 00:19:27;;;;;;;4.93;2.65;;;;;;;16.25;80.25;96170.69;10352537;28;98877;-62
2022/09/04 00:24:36;;;;;;;5.10;2.50;;;;;;;16.09;80.64;96170.94;10378589;28;97097;-62
2022/09/04 00:29:47;;;;;;;5.93;2.78;;;;;;;16.01;80.90;96171.00;10376235;27;96712;-62
2022/09/04 00:35:12;;;;;;;3.88;2.55;;;;;;;15.92;80.58;96182.66;10373614;28;97585;-62
2022/09/04 00:40:26;;;;;;;5.37;2.60;;;;;;;15.76;81.10;96183.66;10377039;28;96753;-62
2022/09/04 00:45:45;;;;;;;4.75;2.35;;;;;;;15.59;81.08;96186.47;10348504;28;96816;-62
2022/09/04 00:51:13;;;;;;;5.60;2.53;;;;;;;15.47;81.44;96201.84;10359396;28;96854;-62
2022/09/04 00:56:52;;;;;;;3.65;2.20;;;;;;;15.39;81.55;96194.03;10353998;28;96842;-62
2022/09/04 01:02:01;;;;;;;5.93;2.90;;;;;;;15.25;81.73;96190.38;10287998;28;97088;-62
2022/09/04 01:07:22;;;;;;;4.72;3.05;;;;;;;15.16;82.35;96201.16;10292223;28;97923;-62
2022/09/04 01:12:36;;;;;;;3.95;2.78;;;;;;;15.08;81.84;96191.53;10292901;28;97805;-62
2022/09/04 01:17:46;;;;;;;4.40;2.28;;;;;;;15.03;82.42;96192.03;10292206;28;98391;-62
2022/09/04 01:23:08;;;;;;;3.53;2.10;;;;;;;15.06;81.40;96196.13;10290941;28;97012;-62
2022/09/04 01:28:22;;;;;;;3.53;2.30;;;;;;;14.96;81.85;96196.38;10286388;28;98431;-62
2022/09/04 01:33:34;;;;;;;9.20;2.67;;;;;;;14.91;81.90;96188.19;10289780;28;97911;-62
2022/09/04 01:38:43;;;;;;;6.57;3.42;;;;;;;14.86;81.73;96195.78;10331744;28;96790;-62
2022/09/04 01:43:47;;;;;;;4.05;3.05;;;;;;;14.73;81.77;96185.84;10364570;28;96890;-62
2022/09/04 01:48:57;;;;;;;5.50;3.15;;;;;;;14.65;81.59;96181.47;10350964;28;97373;-62
2022/09/04 01:54:12;;;;;;;8.07;2.95;;;;;;;14.58;81.82;96187.59;10364843;28;98639;-62
2022/09/04 01:59:25;;;;;;;6.35;3.10;;;;;;;14.51;82.60;96190.09;10364361;28;97742;-61
2022/09/04 02:04:31;;;;;;;8.05;3.30;;;;;;;14.42;82.78;96188.50;10365300;28;97739;-62
2022/09/04 02:09:41;;;;;;;6.95;3.53;;;;;;;14.34;83.03;96187.53;10363423;28;99071;-62
2022/09/04 02:14:53;;;;;;;6.30;3.95;;;;;;;14.33;82.57;96185.94;10368175;28;99013;-62
2022/09/04 02:20:07;;;;;;;9.13;4.43;;;;;;;14.27;82.04;96186.56;10350150;28;97751;-62
2022/09/04 02:25:20;;;;;;;7.37;3.23;;;;;;;14.13;83.14;96185.50;10373937;28;96911;-61
2022/09/04 02:30:25;;;;;;;6.78;3.40;;;;;;;14.07;82.82;96187.97;10358693;28;98491;-62
2022/09/04 02:35:31;;;;;;;;;;;;;;;13.91;83.23;96194.94;10369568;28;97179;-62
2022/09/04 02:40:42;;;;;;;6.20;3.92;;;;;;;13.78;83.52;96192.03;10374473;28;97315;-61
2022/09/04 02:45:54;;;;;;;7.45;3.55;;;;;;;13.76;84.13;96188.75;10362268;28;96854;-61
2022/09/04 02:51:12;;;;;;;7.45;3.90;;;;;;;13.73;83.58;96182.03;10401425;28;97588;-62
2022/09/04 02:56:25;;;;;;;8.90;4.03;;;;;;;13.72;84.11;96188.25;10383360;28;99576;-62
2022/09/04 03:01:39;;;;;;;7.45;3.78;;;;;;;13.70;84.07;96177.09;10379661;28;99557;-62
2022/09/04 03:06:50;;;;;;;7.57;3.88;;;;;;;13.67;84.03;96181.88;10404749;27;97322;-62
2022/09/04 03:12:00;;;;;;;10.15;4.40;;;;;;;13.59;84.12;96178.28;10364096;28;96786;-61
2022/09/04 03:17:15;;;;;;;7.93;4.68;;;;;;;13.46;84.58;96180.59;10360870;28;96717;-61
2022/09/04 03:22:23;;;;;;;10.63;4.07;;;;;;;13.36;83.90;96182.59;10372018;28;97155;-62
2022/09/04 03:27:27;;;;;;;7.53;4.03;;;;;;;13.34;84.34;96185.41;10385134;28;97754;-61
2022/09/04 03:32:37;;;;;;;6.40;3.83;;;;;;;13.33;84.41;96178.50;10359718;28;98133;-61
2022/09/04 03:37:52;;;;;;;9.10;4.45;;;;;;;13.25;83.86;96186.38;10383216;28;96927;-61
2022/09/04 03:43:13;;;;;;;7.03;4.15;;;;;;;13.20;83.40;96189.53;10374662;28;96754;-63
2022/09/04 03:48:32;;;;;;;5.80;3.97;;;;;;;13.16;83.84;96209.19;10355546;28;97420;-61
2022/09/04 03:53:41;;;;;;;13.05;4.47;;;;;;;13.14;84.20;96211.16;10368319;28;98565;-61
2022/09/04 03:58:51;;;;;;;9.07;5.10;;;;;;;13.13;83.71;96206.88;10389291;28;98534;-62
2022/09/04 04:04:17;;;;;;;8.38;4.97;;;;;;;13.13;84.75;96216.56;10345580;28;97191;-62
2022/09/04 04:09:35;;;;;;;7.88;4.45;;;;;;;13.09;84.14;96216.06;10379514;28;96868;-61
2022/09/04 04:14:56;;;;;;;8.55;4.78;;;;;;;12.98;85.09;96221.66;10365421;28;97822;-61
2022/09/04 04:20:13;;;;;;;9.93;5.07;;;;;;;12.96;85.29;96221.81;10373146;28;98537;-62
2022/09/04 04:25:28;;;;;;;6.68;4.20;;;;;;;12.94;84.45;96236.06;10385389;28;97752;-61
2022/09/04 04:30:43;;;;;;;9.90;4.63;;;;;;;12.92;84.88;96243.25;10371690;28;96981;-61
2022/09/04 04:35:54;;;;;;;9.10;4.72;;;;;;;12.82;84.61;96246.84;10359876;28;97013;-62
2022/09/04 04:41:10;;;;;;;8.05;4.25;;;;;;;12.74;85.06;96262.53;10384187;28;97732;-62
2022/09/04 04:46:22;;;;;;;7.60;4.60;;;;;;;12.65;85.24;96256.47;10358343;28;98600;-62
2022/09/04 04:51:42;;;;;;;7.50;4.28;;;;;;;12.65;85.18;96259.09;10359718;28;96864;-62
2022/09/04 04:56:53;;;;;;;6.75;3.85;;;;;;;12.68;84.51;96257.94;10362950;28;97609;-61
2022/09/04 05:02:06;;;;;;;9.70;4.25;;;;;;;12.63;84.81;96260.19;10357451;28;97584;-61
2022/09/04 05:07:21;;;;;;;6.50;3.75;;;;;;;12.61;85.28;96268.25;10367825;28;99101;-61
2022/09/04 05:12:31;;;;;;;7.40;4.25;;;;;;;12.59;84.67;96270.19;10358079;28;97367;-62
2022/09/04 05:17:40;;;;;;;8.75;4.45;;;;;;;12.63;85.14;96281.16;10365571;28;97710;-61
2022/09/04 05:22:50;;;;;;;12.68;4.90;;;;;;;12.64;85.30;96283.63;10364850;28;97177;-61
2022/09/04 05:28:03;;;;;;;9.80;4.82;;;;;;;12.64;85.41;96288.06;10343674;28;97777;-61
2022/09/04 05:33:15;;;;;;;8.20;3.78;;;;;;;12.67;84.91;96295.63;10385911;28;97088;-61
2022/09/04 05:38:28;;;;;;;8.35;4.70;;;;;;;12.74;85.19;96296.63;10364215;28;96758;-61
2022/09/04 05:43:48;;;;;;;7.00;4.43;;;;;;;12.82;85.17;96280.91;10368941;28;98498;-61
2022/09/04 05:49:00;;;;;;;9.90;5.22;;;;;;;12.91;85.28;96291.44;10374991;28;96804;-61
2022/09/04 05:54:33;;;;;;;7.30;4.18;;;;;;;12.98;85.34;96295.06;10368116;28;99144;-62
2022/09/04 05:59:52;;;;;;;5.97;3.92;;;;;;;13.00;85.58;96298.34;10375668;28;97224;-61
2022/09/04 06:05:09;;;;;;;9.02;4.72;;;;;;;12.95;85.57;96295.38;10364228;28;97191;-61
2022/09/04 06:10:19;;;;;;;7.53;4.10;;;;;;;13.11;86.30;96310.31;10381608;28;96875;-61
2022/09/04 06:15:40;;;;;;;6.30;3.40;;;;;;;13.31;85.98;96313.44;10349992;28;96943;-61
2022/09/04 06:21:07;;;;;;;6.10;2.97;;;;;;;13.53;85.32;96320.69;10376787;28;97341;-61
2022/09/04 06:26:25;;;;;;;4.72;3.10;;;;;;;13.65;85.10;96329.03;10365462;28;97956;-61
2022/09/04 06:31:55;;;;;;;5.65;3.50;;;;;;;13.80;85.59;96330.03;10367062;28;98728;-61
2022/09/04 06:37:11;;;;;;;6.55;3.47;;;;;;;13.89;85.23;96336.09;10376185;28;98361;-61
2022/09/04 06:42:35;;;;;;;3.95;3.13;;;;;;;14.02;84.68;96332.97;10353988;28;98459;-61
2022/09/04 06:47:50;;;;;;;5.85;3.50;;;;;;;14.18;84.98;96345.25;10371585;28;96748;-61
2022/09/04 06:53:17;;;;;;;5.75;3.50;;;;;;;14.28;84.51;96337.16;10371224;28;97689;-61
2022/09/04 06:59:05;;;;;;;7.85;3.95;;;;;;;14.32;85.40;96346.41;10369650;28;97154;-61
2022/09/04 07:04:20;;;;;;;6.07;3.70;;;;;;;14.45;84.47;96343.22;10229169;28;97064;-61
2022/09/04 07:09:28;;;;;;;4.20;3.30;;;;;;;14.56;84.65;96343.69;10253107;28;97058;-61
2022/09/04 07:14:46;;;;;;;10.07;3.50;;;;;;;14.71;84.67;96341.16;10218166;28;97900;-62
2022/09/04 07:20:02;;;;;;;4.47;2.83;;;;;;;14.78;85.08;96341.28;10230616;28;98439;-61
2022/09/04 07:25:13;;;;;;;4.90;2.80;;;;;;;14.93;84.45;96346.66;10242212;28;98753;-61
2022/09/04 07:30:18;;;;;;;3.53;2.47;;;;;;;15.06;84.70;96348.72;10261737;28;96891;-62
2022/09/04 07:35:30;;;;;;;3.72;2.60;;;;;;;15.10;84.41;96345.56;10266813;28;97456;-62
2022/09/04 07:40:37;;;;;;;4.93;3.00;;;;;;;15.15;84.20;96358.22;10340447;28;98621;-62
2022/09/04 07:45:49;;;;;;;2.90;2.53;;;;;;;15.26;84.04;96359.63;10367259;28;96760;-61
2022/09/04 07:51:02;;;;;;;4.35;2.80;;;;;;;15.43;83.52;96360.34;10364244;28;98291;-62
2022/09/04 07:56:17;;;;;;;3.50;2.45;;;;;;;15.63;82.95;96373.88;10360860;28;97332;-61
2022/09/04 08:01:39;;;;;;;4.77;2.20;;;;;;;15.62;82.84;96369.63;10372149;28;96892;-61
2022/09/04 08:06:48;;;;;;;4.97;2.10;;;;;;;15.73;83.11;96371.81;10379565;28;98580;-61
2022/09/04 08:12:22;;;;;;;3.65;2.28;;;;;;;15.93;82.44;96379.22;10362344;28;99037;-61
2022/09/04 08:18:02;;;;;;;4.95;1.77;;;;;;;16.08;81.41;96374.00;10347714;28;98456;-61
2022/09/04 08:23:18;;;;;;;6.18;2.33;;;;;;;16.24;81.08;96395.78;10340376;28;98029;-61
2022/09/04 08:28:34;;;;;;;2.88;1.80;;;;;;;16.40;80.63;96391.34;10366769;28;96741;-62
2022/09/04 08:34:19;;;;;;;2.63;2.20;;;;;;;16.56;80.60;96393.78;10348761;28;97217;-62
2022/09/04 08:39:37;;;;;;;2.15;1.70;;;;;;;16.70;78.75;96399.25;10274580;28;98654;-61
2022/09/04 08:45:22;;;;;;;2.80;1.70;;;;;;;16.92;78.03;96398.38;10284900;28;97092;-61
2022/09/04 08:50:50;;;;;;;3.83;2.87;;;;;;;17.13;78.12;96394.97;10073608;28;97276;-61
2022/09/04 08:56:19;;;;;;;4.10;2.78;;;;;;;17.25;77.55;96392.69;10077920;28;97818;-63
2022/09/04 09:02:04;;;;;;;3.20;1.75;;;;;;;17.50;77.55;96400.25;10069683;28;96932;-62
2022/09/04 09:07:18;;;;;;;;;;;;;;;17.72;77.27;96404.53;10086721;28;97005;-63
2022/09/04 09:12:46;;;;;;;1.63;1.42;;;;;;;17.85;76.26;96409.16;10111163;28;97336;-62
2022/09/04 09:18:02;;;;;;;3.25;1.80;;;;;;;18.11;74.49;96403.28;10227571;28;97069;-62
2022/09/04 09:23:19;;;;;;;2.78;1.60;;;;;;;18.36;73.19;96412.63;10196678;28;98677;-62
2022/09/04 09:28:58;;;;;;;2.58;1.77;;;;;;;18.55;74.05;96408.47;10344312;28;97696;-61
2022/09/04 09:34:39;;;;;;;2.45;1.63;;;;;;;18.67;73.20;96401.63;10347231;28;98330;-62
2022/09/04 09:40:08;;;;;;;1.95;1.60;;;;;;;18.84;72.21;96400.31;10343457;28;99388;-61
2022/09/04 09:45:26;;;;;;;2.63;1.80;;;;;;;18.94;72.05;96391.22;10347312;28;96930;-61
2022/09/04 09:51:00;;;;;;;2.00;1.60;;;;;;;19.10;70.63;96395.38;10348214;28;97912;-61
2022/09/04 09:56:51;;;;;;;2.65;1.65;;;;;;;19.20;71.90;96395.81;10353683;28;97095;-62
2022/09/04 10:02:22;;;;;;;2.67;1.83;;;;;;;19.23;71.94;96393.59;10358071;27;96788;-61
2022/09/04 10:07:56;;;;;;;2.97;1.58;;;;;;;19.44;70.26;96389.19;10364736;28;96862;-61
2022/09/04 10:13:19;;;;;;;2.30;1.40;;;;;;;19.63;70.37;96391.03;10386129;28;96800;-61
2022/09/04 10:19:02;;;;;;;2.65;1.70;;;;;;;19.84;69.41;96389.28;10374862;28;97089;-61
2022/09/04 10:24:34;;;;;;;2.10;1.60;;;;;;;19.93;70.53;96385.41;10293330;28;98024;-62
2022/09/04 10:29:50;;;;;;;2.30;1.60;;;;;;;19.99;68.86;96387.25;10289547;28;97182;-61
2022/09/04 10:35:10;;;;;;;2.03;1.35;;;;;;;20.16;67.73;96368.28;10253157;28;98820;-61
2022/09/04 10:40:38;;;;;;;2.40;1.55;;;;;;;20.30;66.89;96379.69;10254751;28;98024;-62
2022/09/04 10:45:47;;;;;;;3.55;1.80;;;;;;;20.40;66.44;96379.28;10254407;28;99218;-63
2022/09/04 10:51:26;;;;;;;6.80;3.95;;;;;;;20.50;66.37;96385.78;10256109;28;99633;-62
2022/09/04 10:56:35;;;;;;;3.25;2.58;;;;;;;20.77;64.59;96374.31;10267452;28;98330;-63
2022/09/04 11:02:02;;;;;;;4.28;1.92;;;;;;;20.82;66.04;96374.50;10346113;28;98931;-62
2022/09/04 11:07:32;;;;;;;8.38;5.53;;;;;;;20.79;65.46;96375.75;10341439;28;98435;-62
2022/09/04 11:12:51;;;;;;;2.38;1.80;;;;;;;20.94;65.31;96370.19;10354125;28;98923;-61
2022/09/04 11:18:29;;;;;;;3.05;1.60;;;;;;;21.10;66.00;96380.34;10376081;28;98612;-62
2022/09/04 11:24:19;;;;;;;2.88;2.15;;;;;;;21.26;66.46;96372.94;10386813;27;97101;-61
2022/09/04 11:29:53;;;;;;;2.22;1.60;;;;;;;21.36;63.79;96370.59;10268710;28;96878;-62
2022/09/04 11:35:22;;;;;;;2.30;1.70;;;;;;;21.83;62.03;96368.53;10277277;28;97214;-66
2022/09/04 11:40:59;;;;;;;2.88;1.52;;;;;;;22.03;61.19;96371.03;10267390;28;97236;-67
2022/09/04 11:46:34;;;;;;;2.30;1.67;;;;;;;22.05;62.94;96362.81;10263665;28;99023;-68
2022/09/04 11:51:54;;;;;;;4.15;1.50;;;;;;;22.10;61.42;96356.88;10277735;28;98889;-68
2022/09/04 11:57:12;;;;;;;2.17;1.60;;;;;;;22.17;61.19;96357.63;10281944;28;97438;-68
2022/09/04 12:02:44;;;;;;;2.33;1.42;;;;;;;22.24;62.55;96358.38;10301047;28;99387;-68
2022/09/04 12:08:06;;;;;;;4.97;1.75;;;;;;;22.28;60.41;96364.88;10356816;28;96779;-68
2022/09/04 12:13:38;;;;;;;4.35;1.63;;;;;;;22.34;59.35;96336.59;10388561;28;98455;-68
2022/09/04 12:19:11;;;;;;;2.22;1.55;;;;;;;22.45;59.15;96349.97;10359491;28;97016;-68
2022/09/04 12:24:46;;;;;;;3.20;1.50;;;;;;;22.69;58.86;96349.38;10367424;28;98011;-69
2022/09/04 12:30:04;;;;;;;;;;;;;;;22.92;59.26;96330.03;10359509;28;96797;-67
2022/09/04 12:35:42;;;;;;;2.63;1.48;;;;;;;22.99;59.00;96338.75;10357111;28;97658;-68
2022/09/04 12:40:57;;;;;;;3.78;1.60;;;;;;;22.99;57.90;96328.94;10359518;28;97056;-67
2022/09/04 12:46:15;;;;;;;4.20;1.65;;;;;;;23.16;58.75;96334.44;10383280;28;96809;-69
2022/09/04 12:51:24;;;;;;;3.05;1.70;;;;;;;23.35;57.54;96327.25;10348429;28;97188;-70
2022/09/04 12:56:41;;;;;;;3.20;1.40;;;;;;;23.45;55.42;96331.25;10348783;28;98701;-69
2022/09/04 13:01:57;;;;;;;2.58;1.33;;;;;;;23.31;55.43;96315.44;10363291;28;99458;-68
2022/09/04 13:07:21;;;;;;;4.50;1.85;;;;;;;23.49;56.22;96316.41;10379549;28;96838;-68
2022/09/04 13:12:31;;;;;;;3.87;1.77;;;;;;;23.68;57.43;96315.28;10379115;28;98038;-69
2022/09/04 13:17:44;;;;;;;5.47;1.40;;;;;;;23.82;54.58;96315.09;10354741;28;97532;-68
2022/09/04 13:23:03;;;;;;;3.10;1.47;;;;;;;24.01;56.49;96319.28;10358012;28;97472;-68
2022/09/04 13:28:19;;;;;;;1.45;1.10;;;;;;;24.00;56.27;96309.66;10355721;28;98735;-69
2022/09/04 13:33:41;;;;;;;5.95;1.88;;;;;;;24.06;53.56;96316.75;10390688;28;96745;-69
2022/09/04 13:39:26;;;;;;;3.38;1.60;;;;;;;24.26;54.02;96318.28;10346720;28;97073;-69
2022/09/04 13:44:56;;;;;;;2.75;1.35;;;;;;;24.55;54.25;96294.34;10345220;28;99460;-70
2022/09/04 13:50:08;;;;;;;3.22;1.25;;;;;;;24.86;55.67;96291.25;10383180;28;97075;-72
2022/09/04 13:55:18;;;;;;;3.47;1.70;;;;;;;25.01;52.86;96292.63;10376593;28;96734;-72
2022/09/04 14:00:21;;;;;;;2.22;1.42;;;;;;;24.97;53.04;96299.50;10388760;28;96688;-72
2022/09/04 14:05:28;;;;;;;2.37;1.30;;;;;;;25.10;51.59;96293.06;10397368;28;96905;-72
2022/09/04 14:10:49;;;;;;;4.75;1.73;;;;;;;24.95;53.13;96272.19;10395063;28;96809;-72
2022/09/04 14:16:03;;;;;;;2.15;1.48;;;;;;;25.63;50.41;96291.88;10375488;27;96801;-72
2022/09/04 14:21:15;;;;;;;4.38;1.48;;;;;;;26.01;50.98;96290.34;10402075;28;96891;-72
2022/09/04 14:26:29;;;;;;;2.63;1.33;;;;;;;26.25;49.37;96300.88;10404008;28;96701;-72
2022/09/04 14:31:40;;;;;;;1.95;1.38;;;;;;;26.63;51.92;96294.72;10405798;28;98018;-72
2022/09/04 14:37:00;;;;;;;4.35;1.60;;;;;;;26.73;48.66;96289.50;10392333;27;97086;-72
2022/09/04 14:42:27;;;;;;;1.63;1.23;;;;;;;27.24;46.84;96289.28;10379585;28;97400;-63
2022/09/04 14:47:38;;;;;;;6.43;4.53;;;;;;;27.74;46.80;96276.63;10368066;28;98187;-62
2022/09/04 14:52:47;;;;;;;2.75;1.95;;;;;;;28.23;44.70;96281.81;10405228;28;96950;-62
2022/09/04 14:57:55;;;;;;;3.13;1.33;;;;;;;28.58;42.52;96269.66;10393861;28;97183;-62
2022/09/04 15:03:08;;;;;;;3.63;1.42;;;;;;;28.44;44.04;96257.78;10399158;28;97037;-62
2022/09/04 15:08:26;;;;;;;1.85;1.38;;;;;;;28.41;42.72;96253.75;10392871;28;96785;-62
2022/09/04 15:13:40;;;;;;;3.30;1.75;;;;;;;28.74;43.01;96246.38;10364540;28;97137;-62
2022/09/04 15:18:54;;;;;;;4.00;1.55;;;;;;;29.04;42.37;96249.44;10401814;28;96837;-62
2022/09/04 15:24:11;;;;;;;1.77;1.40;;;;;;;29.85;42.94;96253.28;10393962;28;96675;-62
2022/09/04 15:29:20;;;;;;;4.10;1.30;;;;;;;29.85;39.85;96247.91;10393545;28;97214;-62
2022/09/04 15:34:26;;;;;;;3.63;1.30;;;;;;;30.07;39.35;96240.31;10393988;28;97017;-63
2022/09/04 15:39:36;;;;;;;2.08;1.33;;;;;;;30.61;39.41;96238.06;10399748;28;97258;-62
2022/09/04 15:44:43;;;;;;;3.80;1.35;;;;;;;30.83;38.65;96225.03;10372114;28;97120;-62
2022/09/04 15:49:50;;;;;;;3.83;1.40;;;;;;;30.71;37.60;96211.03;10373583;28;98504;-62
2022/09/04 15:55:22;;;;;;;3.00;1.48;;;;;;;30.74;37.31;96221.28;10393226;28;97417;-62
2022/09/04 16:00:30;;;;;;;1.73;1.40;;;;;;;30.74;36.83;96232.06;10400476;28;96746;-62
2022/09/04 16:05:53;;;;;;;1.88;1.20;;;;;;;31.42;36.84;96231.44;10400906;28;97464;-63
2022/09/04 16:11:02;;;;;;;1.80;1.20;;;;;;;31.55;36.65;96223.78;10409423;27;97189;-64
2022/09/04 16:16:11;;;;;;;2.95;1.30;;;;;;;31.34;36.50;96217.72;10391705;28;97033;-62
2022/09/04 16:21:23;;;;;;;2.65;1.35;;;;;;;31.48;36.51;96218.69;10392455;27;97135;-63
2022/09/04 16:26:31;;;;;;;2.47;1.23;;;;;;;31.70;37.22;96222.88;10350568;28;98822;-61
2022/09/04 16:31:35;;;;;;;2.38;1.50;;;;;;;31.32;37.44;96211.78;10348480;28;98622;-64
2022/09/04 16:36:44;;;;;;;1.80;1.20;;;;;;;31.14;37.86;96218.66;10353922;28;97491;-63
2022/09/04 16:41:54;;;;;;;3.25;1.35;;;;;;;31.19;37.97;96224.00;10388007;28;98114;-61
2022/09/04 16:47:10;;;;;;;2.17;1.30;;;;;;;31.50;37.98;96204.94;10360702;28;97869;-61
2022/09/04 16:52:30;;;;;;;2.25;1.00;;;;;;;31.38;37.65;96210.69;10371336;28;96833;-61
2022/09/04 16:57:42;;;;;;;1.90;1.20;;;;;;;31.26;38.15;96212.91;10391980;28;97733;-62
2022/09/04 17:02:49;;;;;;;4.68;3.63;;;;;;;30.79;38.67;96201.59;10381338;28;97421;-62
2022/09/04 17:07:57;;;;;;;3.83;1.42;;;;;;;30.38;39.42;96181.00;10364135;28;96933;-61
2022/09/04 17:13:09;;;;;;;2.17;1.50;;;;;;;29.51;40.89;96194.59;10353709;28;99951;-61
2022/09/04 17:18:20;;;;;;;2.80;1.52;;;;;;;28.25;42.94;96206.34;10345122;28;97069;-62
2022/09/04 17:23:27;;;;;;;2.28;1.40;;;;;;;27.08;44.25;96215.94;10350980;28;96862;-60
2022/09/04 17:28:58;;;;;;;1.98;1.40;;;;;;;26.12;46.16;96221.69;10370000;28;97276;-60
2022/09/04 17:34:42;;;;;;;3.17;1.55;;;;;;;25.44;47.50;96219.06;10363634;28;96701;-62
2022/09/04 17:40:14;;;;;;;3.28;1.60;;;;;;;24.92;49.57;96228.03;10387055;28;97043;-61
2022/09/04 17:45:50;;;;;;;3.85;2.10;;;;;;;24.41;51.34;96243.84;10373578;28;99880;-61
2022/09/04 17:50:57;;;;;;;2.92;1.70;;;;;;;24.00;51.83;96239.47;10390374;27;97736;-60
2022/09/04 17:56:07;;;;;;;2.60;1.65;;;;;;;23.70;52.62;96248.38;10374606;28;97004;-62
2022/09/04 18:01:20;;;;;;;5.45;2.38;;;;;;;23.32;54.04;96253.06;10349498;28;96845;-60
2022/09/04 18:06:26;;;;;;;6.47;3.97;;;;;;;23.03;55.17;96248.53;10382670;28;96961;-60
2022/09/04 18:11:39;;;;;;;11.57;8.48;;;;;;;22.69;56.22;96258.84;10386923;28;97349;-60
2022/09/04 18:16:52;;;;;;;10.05;5.63;;;;;;;22.41;57.11;96252.97;10391949;28;97260;-60
2022/09/04 18:22:28;;;;;;;20.55;14.00;;;;;;;22.03;59.02;96250.50;10366247;28;96808;-59
2022/09/04 18:27:43;;;;;;;17.52;11.27;;;;;;;21.86;59.46;96255.56;10373831;28;96824;-60
2022/09/04 18:32:52;;;;;;;12.48;8.43;;;;;;;21.73;59.65;96269.81;10390804;28;96885;-61
2022/09/04 18:38:19;;;;;;;8.90;5.55;;;;;;;21.47;60.78;96279.59;10358459;28;97043;-61
2022/09/04 18:43:26;;;;;;;8.20;5.97;;;;;;;21.26;61.37;96279.94;10376694;28;97392;-60
2022/09/04 18:48:59;;;;;;;3.60;2.63;;;;;;;21.07;61.04;96294.97;10377437;28;97800;-60
2022/09/04 18:54:28;;;;;;;8.68;3.25;;;;;;;20.91;61.15;96306.88;10391360;27;97411;-60
2022/09/04 18:59:35;;;;;;;4.18;2.30;;;;;;;20.67;62.91;96311.84;10370351;28;96936;-59
2022/09/04 19:04:49;;;;;;;6.47;3.40;;;;;;;20.45;63.54;96303.34;10395949;28;97072;-60
2022/09/04 19:10:04;;;;;;;5.15;3.08;;;;;;;20.35;64.21;96324.97;10407644;28;96823;-60
2022/09/04 19:15:24;;;;;;;11.10;4.60;;;;;;;20.12;64.49;96337.88;10379268;28;96977;-60
2022/09/04 19:20:46;;;;;;;6.90;2.95;;;;;;;19.96;64.99;96337.28;10388273;28;96787;-61
2022/09/04 19:25:51;;;;;;;13.15;6.25;;;;;;;19.94;65.74;96339.31;10402415;28;97143;-60
2022/09/04 19:31:01;;;;;;;6.03;3.10;;;;;;;19.89;65.53;96336.47;10385717;28;96885;-60
2022/09/04 19:36:11;;;;;;;8.45;5.32;;;;;;;19.77;66.30;96346.03;10390313;28;96722;-60
2022/09/04 19:41:21;;;;;;;5.97;2.70;;;;;;;19.55;66.89;96350.66;10398236;28;96775;-59
2022/09/04 19:46:52;;;;;;;4.68;2.47;;;;;;;19.17;68.12;96349.34;10401358;28;96864;-61
2022/09/04 19:52:03;;;;;;;6.38;2.40;;;;;;;18.90;69.42;96358.22;10405404;28;98135;-60
2022/09/04 19:57:32;;;;;;;5.85;2.05;;;;;;;18.81;68.03;96366.31;10389467;28;97181;-59
2022/09/04 20:02:45;;;;;;;4.97;2.35;;;;;;;18.80;66.48;96361.22;10394614;28;96821;-60
2022/09/04 20:07:55;;;;;;;4.65;2.75;;;;;;;18.84;65.38;96365.88;10385716;28;96941;-62
2022/09/04 20:13:11;;;;;;;2.67;2.00;;;;;;;18.75;65.91;96369.72;10367364;28;96842;-59
2022/09/04 20:18:18;;;;;;;5.38;2.33;;;;;;;18.61;66.26;96381.25;10387604;28;97055;-59
2022/09/04 20:23:26;;;;;;;3.80;2.55;;;;;;;18.50;66.79;96372.03;10376083;28;96725;-60
2022/09/04 20:28:50;;;;;;;4.63;2.10;;;;;;;18.45;66.04;96367.31;10364994;28;96718;-64
2022/09/04 20:33:58;;;;;;;5.10;2.63;;;;;;;18.50;66.21;96378.13;10400215;28;97171;-60
2022/09/04 20:39:08;;;;;;;4.38;2.20;;;;;;;18.57;66.11;96380.00;10397195;28;96996;-59
2022/09/04 20:44:17;;;;;;;5.85;2.38;;;;;;;18.55;65.67;96385.50;10395747;28;96815;-61
2022/09/04 20:49:29;;;;;;;3.55;2.40;;;;;;;18.45;66.35;96382.38;10379492;28;96941;-60
2022/09/04 20:55:07;;;;;;;7.35;2.60;;;;;;;18.23;67.77;96381.63;10399641;28;97646;-59
2022/09/04 21:00:14;;;;;;;6.80;2.92;;;;;;;17.99;69.05;96374.91;10397021;28;96782;-60
2022/09/04 21:05:49;;;;;;;7.18;2.95;;;;;;;17.80;69.91;96389.56;10355042;28;98053;-59
2022/09/04 21:11:07;;;;;;;6.30;2.87;;;;;;;17.69;69.56;96383.78;10376969;28;96796;-59
2022/09/04 21:16:41;;;;;;;6.68;4.22;;;;;;;17.82;69.84;96403.41;10372754;28;97127;-59
2022/09/04 21:21:56;;;;;;;8.23;3.03;;;;;;;17.84;70.04;96411.97;10371093;28;98015;-59
2022/09/04 21:27:23;;;;;;;5.25;2.72;;;;;;;17.74;70.37;96409.63;10369820;28;96752;-60
2022/09/04 21:33:02;;;;;;;3.97;2.22;;;;;;;17.76;70.42;96419.00;10371803;28;97249;-59
2022/09/04 21:39:05;;;;;;;3.60;2.28;;;;;;;17.73;70.01;96423.84;10214104;28;96974;-61
2022/09/04 21:44:35;;;;;;;3.63;2.38;;;;;;;17.67;70.13;96425.41;10205345;28;97659;-59
2022/09/04 21:49:55;;;;;;;6.00;2.58;;;;;;;17.52;70.87;96428.09;10212834;28;98172;-60
2022/09/04 21:55:10;;;;;;;6.80;2.90;;;;;;;17.53;71.22;96442.13;10229692;28;96940;-59
2022/09/04 22:00:47;;;;;;;5.93;2.97;;;;;;;17.47;70.86;96437.59;10207236;28;96951;-60
2022/09/04 22:06:22;;;;;;;4.00;3.00;;;;;;;17.38;71.93;96448.25;10216538;28;97294;-61
2022/09/04 22:11:56;;;;;;;7.05;3.33;;;;;;;17.21;72.71;96457.38;10318166;28;96830;-59
2022/09/04 22:17:57;;;;;;;4.40;3.30;;;;;;;17.04;73.66;96469.16;10369033;28;96817;-61
2022/09/04 22:23:39;;;;;;;8.98;3.25;;;;;;;16.98;73.88;96470.69;10370932;28;98581;-60
2022/09/04 22:28:54;;;;;;;5.72;2.75;;;;;;;17.00;73.54;96473.97;10372202;28;97861;-61
2022/09/04 22:34:27;;;;;;;4.53;2.88;;;;;;;16.99;73.70;96481.06;10368150;28;97326;-60
2022/09/04 22:40:04;;;;;;;5.90;2.60;;;;;;;16.99;73.69;96478.44;10376510;28;96815;-59
2022/09/04 22:45:40;;;;;;;3.92;2.83;;;;;;;16.93;73.56;96483.63;10379686;28;96822;-60
2022/09/04 22:51:00;;;;;;;6.00;2.88;;;;;;;16.87;74.06;96495.72;10395302;28;96996;-60
2022/09/04 22:56:04;;;;;;;6.43;3.00;;;;;;;16.83;74.46;96490.97;10364509;28;96706;-59
2022/09/04 23:01:59;;;;;;;7.40;3.53;;;;;;;16.75;74.58;96492.72;10389404;28;96831;-59
2022/09/04 23:07:43;;;;;;;6.18;2.90;;;;;;;16.80;75.02;96485.06;10398117;28;98646;-59
2022/09/04 23:13:23;;;;;;;6.90;2.97;;;;;;;16.82;74.64;96487.53;10386339;28;99090;-60
2022/09/04 23:19:04;;;;;;;5.93;3.15;;;;;;;16.91;74.54;96488.25;10362800;28;96826;-59
2022/09/04 23:25:16;;;;;;;5.85;3.08;;;;;;;16.98;73.72;96489.97;10373180;28;97210;-60
2022/09/04 23:30:49;;;;;;;4.25;2.70;;;;;;;16.96;73.84;96491.19;10339150;28;96898;-59
2022/09/04 23:36:01;;;;;;;7.68;3.15;;;;;;;16.94;74.35;96501.91;10299014;28;97812;-60
2022/09/04 23:41:15;;;;;;;6.10;3.30;;;;;;;16.76;74.79;96485.59;10343423;28;96891;-59
2022/09/04 23:46:43;;;;;;;6.77;3.60;;;;;;;16.52;75.93;96491.91;10342046;28;97406;-60
2022/09/04 23:51:55;;;;;;;6.57;3.20;;;;;;;16.42;76.23;96486.88;10335671;28;97991;-60
2022/09/04 23:57:03;;;;;;;5.25;3.38;;;;;;;16.47;76.60;96481.91;10347173;28;96987;-60
